Time;durP1;ratioP1;P1;durP2;ratioP2;P2;SDS_P1;SDS_P2;PMS_P1;PMS_P2;Temp;Humidity;BMP_temperature;BMP_pressure;BME280_temperature;BME280_humidity;BME280_pressure;Samples;Min_cycle;Max_cycle;Signal;HPM_P1;HPM_P2
2022/04/10 00:01:09;;;;;;;13.13;2.17;;;;;;;3.37;90.53;101860.31;4956802;28;20035;-83
2022/04/10 00:03:34;;;;;;;8.50;2.05;;;;;;;3.41;90.97;101862.06;4945119;28;20371;-85
2022/04/10 00:06:00;;;;;;;9.95;2.33;;;;;;;3.44;90.76;101861.22;4957166;28;20070;-84
2022/04/10 00:08:25;;;;;;;10.05;1.80;;;;;;;3.47;90.44;101861.22;4940742;28;20101;-84
2022/04/10 00:10:50;;;;;;;7.15;1.88;;;;;;;3.49;91.09;101862.09;4939302;28;20066;-84
2022/04/10 00:13:16;;;;;;;15.00;2.67;;;;;;;3.54;91.02;101849.88;4958243;28;20049;-83
2022/04/10 00:15:42;;;;;;;16.95;2.05;;;;;;;3.59;92.05;101849.88;4956252;28;20039;-84
2022/04/10 00:18:09;;;;;;;9.70;2.08;;;;;;;3.61;90.98;101854.22;4955044;28;20030;-84
2022/04/10 00:20:34;;;;;;;6.63;1.90;;;;;;;3.65;90.33;101855.13;4951896;28;20443;-84
2022/04/10 00:22:59;;;;;;;12.23;2.03;;;;;;;3.66;91.12;101855.97;4973140;28;20118;-84
2022/04/10 00:25:25;;;;;;;8.73;2.00;;;;;;;3.66;90.79;101846.38;4956727;28;20098;-85
2022/04/10 00:27:50;;;;;;;8.20;2.00;;;;;;;3.66;90.91;101854.25;4973225;28;20089;-83
2022/04/10 00:30:17;;;;;;;8.85;2.40;;;;;;;3.66;90.61;101845.50;4970422;28;20105;-84
2022/04/10 00:32:44;;;;;;;13.63;2.38;;;;;;;3.67;90.61;101855.09;4955328;28;20031;-85
2022/04/10 00:35:10;;;;;;;11.70;2.25;;;;;;;3.66;91.05;101855.97;4938030;28;20049;-84
2022/04/10 00:37:37;;;;;;;15.30;2.33;;;;;;;3.66;91.04;101848.13;4971546;28;20030;-85
2022/04/10 00:40:04;;;;;;;8.25;2.03;;;;;;;3.64;90.69;101850.75;4973552;28;20030;-83
2022/04/10 00:42:37;;;;;;;12.85;2.33;;;;;;;3.61;91.07;101843.75;4970941;28;20046;-83
2022/04/10 00:45:05;;;;;;;20.55;2.20;;;;;;;3.54;91.22;101841.13;4956253;28;20031;-84
2022/04/10 00:47:31;;;;;;;7.07;2.20;;;;;;;3.47;91.24;101840.25;4967115;28;20131;-84
2022/04/10 00:49:58;;;;;;;10.57;2.47;;;;;;;3.38;91.11;101841.13;4955713;28;20126;-85
2022/04/10 00:52:25;;;;;;;9.35;2.42;;;;;;;3.32;91.36;101846.34;4974478;28;20122;-84
2022/04/10 00:54:51;;;;;;;9.57;2.10;;;;;;;3.29;91.44;101846.34;4956473;28;20026;-84
2022/04/10 00:57:18;;;;;;;10.75;2.22;;;;;;;3.22;91.81;101841.97;4971956;28;20042;-85
2022/04/10 00:59:43;;;;;;;13.98;2.60;;;;;;;3.14;92.59;101841.09;4971098;28;20106;-84
2022/04/10 01:02:09;;;;;;;10.82;2.50;;;;;;;3.08;92.97;101842.81;4938493;29;20034;-84
2022/04/10 01:04:36;;;;;;;14.75;3.00;;;;;;;3.03;92.76;101843.66;4947138;28;20395;-84
2022/04/10 01:07:02;;;;;;;14.90;3.20;;;;;;;2.97;93.34;101846.25;4968919;28;20098;-84
2022/04/10 01:09:27;;;;;;;10.85;2.80;;;;;;;2.92;94.05;101841.03;4952203;28;20636;-84
2022/04/10 01:11:53;;;;;;;11.48;2.30;;;;;;;2.85;94.55;101842.78;4969540;28;20051;-85
2022/04/10 01:14:19;;;;;;;13.43;3.00;;;;;;;2.80;94.56;101854.97;4968777;28;20117;-83
2022/04/10 01:16:46;;;;;;;12.18;2.72;;;;;;;2.72;94.97;101849.66;4970000;28;20035;-85
2022/04/10 01:19:12;;;;;;;10.63;2.63;;;;;;;2.65;95.56;101855.75;4953937;28;20113;-84
2022/04/10 01:21:40;;;;;;;14.77;2.75;;;;;;;2.62;95.91;101856.63;4966341;28;20113;-85
2022/04/10 01:24:06;;;;;;;9.48;2.40;;;;;;;2.60;96.05;101862.72;4948072;28;20035;-85
2022/04/10 01:26:32;;;;;;;14.82;3.17;;;;;;;2.55;96.34;101856.59;4971483;28;20378;-84
2022/04/10 01:29:01;;;;;;;21.05;3.38;;;;;;;2.52;96.12;101864.41;4954047;28;20027;-84
2022/04/10 01:31:29;;;;;;;10.82;2.55;;;;;;;2.50;96.84;101863.53;4951976;28;20186;-83
2022/04/10 01:33:57;;;;;;;8.73;3.03;;;;;;;2.46;96.36;101860.88;4967637;28;20118;-85
2022/04/10 01:36:24;;;;;;;20.50;3.55;;;;;;;2.45;98.04;101866.09;4969124;28;20529;-85
2022/04/10 01:38:52;;;;;;;12.57;2.80;;;;;;;2.43;97.56;101865.22;4947457;28;20066;-84
2022/04/10 01:41:17;;;;;;;19.52;2.63;;;;;;;2.37;97.90;101863.47;4968537;28;20509;-83
2022/04/10 01:43:47;;;;;;;13.52;2.55;;;;;;;2.34;97.21;101863.44;4955078;28;20162;-84
2022/04/10 01:46:14;;;;;;;17.52;3.15;;;;;;;2.32;98.28;101870.41;4967133;28;20520;-84
2022/04/10 01:48:40;;;;;;;15.73;2.80;;;;;;;2.28;98.06;101859.03;4938804;28;20030;-84
2022/04/10 01:51:06;;;;;;;14.50;2.80;;;;;;;2.28;98.54;101866.03;4953659;28;20038;-84
2022/04/10 01:53:32;;;;;;;9.13;2.50;;;;;;;2.27;98.52;101874.72;4965997;28;20034;-84
2022/04/10 01:55:58;;;;;;;14.43;2.90;;;;;;;2.29;98.77;101865.16;4953864;28;20054;-83
2022/04/10 01:58:24;;;;;;;17.48;3.15;;;;;;;2.29;99.12;101879.09;4949904;28;20414;-83
2022/04/10 02:00:49;;;;;;;15.63;2.65;;;;;;;2.28;98.37;101869.50;4934376;29;20066;-84
2022/04/10 02:03:15;;;;;;;9.82;2.72;;;;;;;2.27;99.21;101872.97;4950391;29;20035;-83
2022/04/10 02:05:40;;;;;;;7.03;2.83;;;;;;;2.28;98.44;101876.47;4967435;28;20395;-84
2022/04/10 02:08:06;;;;;;;14.90;2.80;;;;;;;2.27;99.10;101877.34;4967206;28;20031;-84
2022/04/10 02:10:31;;;;;;;21.55;2.65;;;;;;;2.22;98.77;101874.69;4965669;28;20054;-85
2022/04/10 02:12:57;;;;;;;9.20;2.30;;;;;;;2.20;99.36;101888.59;4933725;29;20031;-85
2022/04/10 02:15:22;;;;;;;12.85;2.17;;;;;;;2.17;99.63;101878.16;4950489;29;20075;-85
2022/04/10 02:17:48;;;;;;;19.48;2.65;;;;;;;2.12;99.54;101876.38;4950196;28;20025;-84
2022/04/10 02:20:13;;;;;;;9.85;3.70;;;;;;;2.08;99.41;101878.94;4939914;28;20035;-84
2022/04/10 02:22:38;;;;;;;9.02;2.70;;;;;;;2.06;99.94;101881.56;4930868;29;20039;-85
2022/04/10 02:25:04;;;;;;;9.60;2.20;;;;;;;2.05;100.00;101881.56;4946644;29;20047;-85
2022/04/10 02:27:30;;;;;;;12.52;2.63;;;;;;;2.08;100.00;101884.19;4933304;29;20106;-84
2022/04/10 02:29:56;;;;;;;19.52;2.53;;;;;;;2.09;100.00;101891.16;4964419;28;20043;-84
2022/04/10 02:32:23;;;;;;;13.63;2.50;;;;;;;2.10;100.00;101890.31;4918682;29;20035;-83
2022/04/10 02:34:48;;;;;;;12.23;2.55;;;;;;;2.11;100.00;101885.06;4949948;28;20448;-83
2022/04/10 02:37:14;;;;;;;11.93;2.25;;;;;;;2.15;100.00;101892.94;4929428;29;20113;-84
2022/04/10 02:39:39;;;;;;;9.23;2.42;;;;;;;2.13;100.00;101885.09;4966084;28;20039;-83
2022/04/10 02:42:05;;;;;;;15.48;2.63;;;;;;;2.13;100.00;101885.09;4950982;28;20483;-83
2022/04/10 02:44:31;;;;;;;13.18;2.60;;;;;;;2.13;100.00;101880.72;4965603;28;20058;-83
2022/04/10 02:46:56;;;;;;;11.13;2.72;;;;;;;2.13;100.00;101883.31;4946418;29;20101;-84
2022/04/10 02:49:23;;;;;;;23.33;2.90;;;;;;;2.15;100.00;101885.97;4962263;28;20066;-83
2022/04/10 02:51:49;;;;;;;12.32;2.67;;;;;;;2.15;100.00;101885.97;4950140;28;20047;-85
2022/04/10 02:54:16;;;;;;;11.48;2.65;;;;;;;2.16;100.00;101897.28;4933193;29;20058;-84
2022/04/10 02:56:42;;;;;;;13.38;2.92;;;;;;;2.13;100.00;101891.16;4937630;29;20027;-83
2022/04/10 02:59:08;;;;;;;15.65;2.67;;;;;;;2.12;100.00;101884.22;4957740;28;20055;-85
2022/04/10 03:01:34;;;;;;;9.38;2.50;;;;;;;2.10;100.00;101895.53;4956490;28;20031;-84
2022/04/10 03:04:00;;;;;;;8.05;2.35;;;;;;;2.09;100.00;101892.03;4974718;28;20030;-85
2022/04/10 03:06:25;;;;;;;14.32;2.60;;;;;;;2.06;100.00;101893.72;4967861;28;20038;-85
2022/04/10 03:08:51;;;;;;;10.32;2.20;;;;;;;2.02;100.00;101892.84;4944709;28;20100;-83
2022/04/10 03:11:16;;;;;;;11.02;2.70;;;;;;;1.99;100.00;101897.19;4956179;28;20047;-84
2022/04/10 03:13:42;;;;;;;11.65;2.67;;;;;;;1.94;100.00;101889.28;4956098;28;20038;-84
2022/04/10 03:16:07;;;;;;;11.80;2.63;;;;;;;1.92;100.00;101896.25;4940068;28;20038;-85
2022/04/10 03:18:32;;;;;;;15.55;2.78;;;;;;;1.88;100.00;101902.28;4974041;28;20037;-84
2022/04/10 03:20:58;;;;;;;16.23;2.42;;;;;;;1.84;100.00;101898.78;4973472;28;20161;-84
2022/04/10 03:23:23;;;;;;;15.70;2.90;;;;;;;1.82;100.00;101900.53;4953445;29;20086;-84
2022/04/10 03:25:49;;;;;;;10.32;2.58;;;;;;;1.78;100.00;101898.75;4965956;28;20399;-85
2022/04/10 03:28:14;;;;;;;11.60;2.15;;;;;;;1.76;100.00;101903.06;4960271;28;20034;-84
2022/04/10 03:30:40;;;;;;;12.50;2.55;;;;;;;1.73;100.00;101913.50;4973758;28;20063;-84
2022/04/10 03:33:05;;;;;;;10.38;2.50;;;;;;;1.69;100.00;101917.81;4939865;28;20031;-83
2022/04/10 03:35:31;;;;;;;12.63;2.78;;;;;;;1.66;100.00;101919.53;4939412;28;20467;-84
2022/04/10 03:37:56;;;;;;;8.43;2.40;;;;;;;1.63;100.00;101916.00;4922025;29;20475;-85
2022/04/10 03:40:22;;;;;;;6.38;2.13;;;;;;;1.61;100.00;101920.38;4969196;28;20118;-84
2022/04/10 03:42:48;;;;;;;14.85;2.75;;;;;;;1.58;100.00;101916.84;4923484;28;20094;-84
2022/04/10 03:45:13;;;;;;;17.17;3.42;;;;;;;1.57;100.00;101910.75;4939503;29;20507;-84
2022/04/10 03:47:39;;;;;;;9.85;2.33;;;;;;;1.56;100.00;101919.44;4947370;28;20027;-83
2022/04/10 03:50:05;;;;;;;11.02;2.40;;;;;;;1.57;100.00;101912.47;4972510;28;20027;-82
2022/04/10 03:52:31;;;;;;;12.32;2.78;;;;;;;1.57;100.00;101918.59;4956192;28;20405;-84
2022/04/10 03:54:56;;;;;;;15.60;2.80;;;;;;;1.56;100.00;101919.44;4939512;28;20034;-84
2022/04/10 03:57:22;;;;;;;13.57;2.67;;;;;;;1.55;100.00;101919.41;4936253;28;20043;-84
2022/04/10 03:59:47;;;;;;;10.52;3.17;;;;;;;1.56;100.00;101921.16;4966778;28;20058;-83
2022/04/10 04:02:16;;;;;;;11.40;2.63;;;;;;;1.53;100.00;101923.75;4940360;28;20046;-83
2022/04/10 04:04:42;;;;;;;10.68;2.53;;;;;;;1.53;100.00;101921.13;4939232;28;20069;-83
2022/04/10 04:07:07;;;;;;;15.63;2.80;;;;;;;1.51;100.00;101939.41;4953604;28;20448;-84
2022/04/10 04:09:33;;;;;;;15.55;2.70;;;;;;;1.47;100.00;101935.88;4953575;28;20046;-83
2022/04/10 04:11:58;;;;;;;8.85;2.72;;;;;;;1.45;100.00;101940.19;4972134;28;20032;-83
2022/04/10 04:14:24;;;;;;;9.65;2.72;;;;;;;1.44;100.00;101930.59;4955295;28;20533;-83
2022/04/10 04:16:49;;;;;;;9.75;2.50;;;;;;;1.42;100.00;101928.84;4969237;28;20030;-85
2022/04/10 04:19:15;;;;;;;16.85;3.03;;;;;;;1.38;100.00;101938.41;4932284;28;20100;-84
2022/04/10 04:21:40;;;;;;;12.32;2.70;;;;;;;1.35;100.00;101930.53;4954534;28;20031;-83
2022/04/10 04:24:06;;;;;;;13.60;2.72;;;;;;;1.34;100.00;101931.38;4938543;28;20023;-83
2022/04/10 04:26:31;;;;;;;13.80;2.50;;;;;;;1.30;100.00;101940.03;4940302;28;20244;-83
2022/04/10 04:28:57;;;;;;;8.43;2.83;;;;;;;1.28;100.00;101945.25;4954181;28;20065;-84
2022/04/10 04:31:22;;;;;;;6.10;2.63;;;;;;;1.27;100.00;101942.63;4923045;28;20491;-85
2022/04/10 04:33:48;;;;;;;18.95;3.20;;;;;;;1.23;100.00;101939.09;4939277;28;20035;-83
2022/04/10 04:36:13;;;;;;;5.25;2.20;;;;;;;1.23;100.00;101943.41;4952795;28;20039;-84
2022/04/10 04:38:39;;;;;;;10.05;2.35;;;;;;;1.20;100.00;101948.63;4942708;28;20114;-84
2022/04/10 04:41:05;;;;;;;9.48;2.60;;;;;;;1.18;100.00;101958.16;4953558;28;20038;-84
2022/04/10 04:43:30;;;;;;;11.45;2.72;;;;;;;1.17;100.00;101961.63;4950855;28;20035;-83
2022/04/10 04:45:56;;;;;;;8.55;2.50;;;;;;;1.14;100.00;101952.03;4972340;28;20093;-83
2022/04/10 04:48:21;;;;;;;11.95;2.88;;;;;;;1.10;100.00;101958.94;4937982;28;20039;-84
2022/04/10 04:50:48;;;;;;;13.77;2.90;;;;;;;1.10;100.00;101958.06;4973472;28;20034;-83
2022/04/10 04:53:14;;;;;;;8.00;2.75;;;;;;;1.11;100.00;101959.81;4923805;28;20023;-83
2022/04/10 04:55:39;;;;;;;7.35;2.92;;;;;;;1.11;100.00;101960.72;4955553;28;20033;-84
2022/04/10 04:58:05;;;;;;;13.00;3.00;;;;;;;1.11;100.00;101967.63;4955102;28;20395;-83
2022/04/10 05:00:30;;;;;;;11.73;3.10;;;;;;;1.11;100.00;101962.41;4970974;28;20388;-83
2022/04/10 05:02:56;;;;;;;10.55;2.67;;;;;;;1.11;100.00;101965.94;4939823;28;20039;-84
2022/04/10 05:05:21;;;;;;;14.35;2.88;;;;;;;1.11;100.00;101963.31;4939086;28;20151;-84
2022/04/10 05:07:47;;;;;;;9.98;2.80;;;;;;;1.14;100.00;101970.31;4939589;28;20395;-84
2022/04/10 05:10:12;;;;;;;16.10;3.50;;;;;;;1.16;100.00;101972.94;4974127;28;20027;-84
2022/04/10 05:12:38;;;;;;;10.60;2.92;;;;;;;1.19;100.00;101971.22;4972516;28;20089;-84
2022/04/10 05:15:07;;;;;;;11.52;3.70;;;;;;;1.23;100.00;101970.41;4970623;28;20578;-84
2022/04/10 05:17:33;;;;;;;10.60;2.92;;;;;;;1.28;100.00;101980.91;4952210;28;20480;-84
2022/04/10 05:19:58;;;;;;;15.15;3.60;;;;;;;1.36;100.00;101984.47;4954061;28;20033;-83
2022/04/10 05:22:24;;;;;;;12.73;2.75;;;;;;;1.43;100.00;101985.41;4971978;28;20473;-83
2022/04/10 05:24:50;;;;;;;10.38;3.50;;;;;;;1.47;100.00;101995.03;4970518;28;20482;-85
2022/04/10 05:27:17;;;;;;;10.45;2.58;;;;;;;1.55;100.00;101985.56;4937940;28;20125;-84
2022/04/10 05:29:42;;;;;;;10.48;3.17;;;;;;;1.65;100.00;101999.59;4954364;28;20034;-84
2022/04/10 05:32:09;;;;;;;7.20;2.72;;;;;;;1.75;100.00;101992.72;4967169;28;20046;-85
2022/04/10 05:34:35;;;;;;;11.65;3.20;;;;;;;1.79;100.00;101992.78;4969939;28;20031;-85
2022/04/10 05:37:00;;;;;;;12.63;3.03;;;;;;;1.86;100.00;101998.06;4954204;28;20035;-84
2022/04/10 05:39:25;;;;;;;10.88;3.17;;;;;;;1.94;100.00;102001.63;4935466;28;20114;-84
2022/04/10 05:41:51;;;;;;;9.80;2.83;;;;;;;2.00;100.00;102006.03;4970579;28;20058;-84
2022/04/10 05:44:16;;;;;;;9.43;3.03;;;;;;;2.08;100.00;102006.97;4937856;28;20426;-83
2022/04/10 05:46:41;;;;;;;9.00;3.08;;;;;;;2.14;100.00;102004.44;4921812;28;20034;-83
2022/04/10 05:49:07;;;;;;;10.73;3.03;;;;;;;2.15;100.00;102002.69;4937459;28;20125;-83
2022/04/10 05:51:33;;;;;;;13.82;2.65;;;;;;;2.17;100.00;102008.81;4952157;28;20037;-85
2022/04/10 05:53:58;;;;;;;7.97;2.83;;;;;;;2.25;100.00;102014.97;4948848;28;20042;-84
2022/04/10 05:56:24;;;;;;;7.35;2.47;;;;;;;2.40;100.00;102017.69;4958319;28;20086;-85
2022/04/10 05:58:49;;;;;;;10.98;2.70;;;;;;;2.51;100.00;102019.56;4942426;28;20058;-85
2022/04/10 06:01:15;;;;;;;9.75;2.75;;;;;;;2.60;100.00;102025.72;4974375;28;20081;-84
2022/04/10 06:03:40;;;;;;;9.88;2.67;;;;;;;2.70;100.00;102018.81;4937829;29;20069;-84
2022/04/10 06:06:06;;;;;;;7.00;2.58;;;;;;;2.79;100.00;102020.63;4938327;28;20497;-84
2022/04/10 06:08:31;;;;;;;4.43;2.42;;;;;;;2.82;99.48;102025.84;4969638;28;20035;-82
2022/04/10 06:10:57;;;;;;;9.20;2.70;;;;;;;2.87;99.51;102028.50;4954680;28;20023;-83
2022/04/10 06:13:22;;;;;;;6.80;2.40;;;;;;;2.96;100.00;102036.41;4974241;28;20035;-83
2022/04/10 06:15:48;;;;;;;5.65;2.42;;;;;;;3.09;99.62;102042.59;4938924;28;20035;-83
2022/04/10 06:18:13;;;;;;;7.22;2.47;;;;;;;3.22;99.28;102038.28;4943744;28;20023;-83
2022/04/10 06:20:39;;;;;;;6.93;2.60;;;;;;;3.35;99.02;102044.47;4974013;28;20037;-84
2022/04/10 06:23:05;;;;;;;8.07;2.40;;;;;;;3.52;99.07;102047.19;4941025;28;20027;-84
2022/04/10 06:25:30;;;;;;;14.27;3.92;;;;;;;3.66;98.20;102037.63;4968227;28;20034;-83
2022/04/10 06:27:58;;;;;;;10.98;3.30;;;;;;;3.83;97.18;102047.28;4959287;28;20499;-85
2022/04/10 06:30:24;;;;;;;11.65;2.67;;;;;;;4.04;96.37;102049.03;4959428;28;20030;-83
2022/04/10 06:32:49;;;;;;;9.13;3.40;;;;;;;4.20;94.63;102044.72;4975369;28;20438;-84
2022/04/10 06:35:15;;;;;;;15.30;3.75;;;;;;;4.35;91.37;102049.09;4953298;28;20459;-84
2022/04/10 06:37:42;;;;;;;6.78;2.55;;;;;;;4.53;90.52;102056.97;4976874;28;20039;-84
2022/04/10 06:40:08;;;;;;;14.63;4.03;;;;;;;4.76;89.02;102050.84;4943505;28;20039;-83
2022/04/10 06:42:34;;;;;;;9.20;2.60;;;;;;;4.93;87.23;102063.94;4960566;28;20096;-84
2022/04/10 06:44:59;;;;;;;9.07;1.90;;;;;;;5.04;85.44;102063.94;4977988;28;20109;-84
2022/04/10 06:47:27;;;;;;;6.25;1.85;;;;;;;5.14;85.29;102081.41;4944090;28;20391;-84
2022/04/10 06:49:53;;;;;;;8.20;2.00;;;;;;;5.22;84.08;102077.00;4961328;28;20038;-84
2022/04/10 06:52:19;;;;;;;5.82;1.60;;;;;;;5.27;86.15;102081.34;4962306;28;20170;-84
2022/04/10 06:54:44;;;;;;;6.32;1.80;;;;;;;5.27;87.54;102081.34;4976331;28;20070;-84
2022/04/10 06:57:09;;;;;;;6.50;1.60;;;;;;;5.18;89.87;102077.00;4975903;28;20042;-84
2022/04/10 06:59:35;;;;;;;5.57;1.90;;;;;;;5.17;91.84;102088.41;4962775;28;20514;-84
2022/04/10 07:02:01;;;;;;;4.47;1.48;;;;;;;5.18;93.09;102083.16;4968717;28;20034;-84
2022/04/10 07:04:26;;;;;;;10.02;2.20;;;;;;;5.20;92.92;102085.75;4960381;28;20118;-84
2022/04/10 07:06:52;;;;;;;6.95;1.70;;;;;;;5.29;93.41;102083.09;4960002;28;20027;-84
2022/04/10 07:09:18;;;;;;;32.95;2.55;;;;;;;5.34;93.34;102093.59;4941682;28;20027;-84
2022/04/10 07:11:45;;;;;;;12.20;2.00;;;;;;;5.43;92.60;102090.94;4958842;28;20050;-85
2022/04/10 07:14:10;;;;;;;9.38;1.90;;;;;;;5.51;91.95;102096.16;4958939;28;20085;-85
2022/04/10 07:16:36;;;;;;;8.60;2.15;;;;;;;5.56;91.73;102097.03;4950665;28;20031;-83
2022/04/10 07:19:01;;;;;;;5.07;1.90;;;;;;;5.59;92.06;102099.66;4959142;28;20398;-85
2022/04/10 07:24:10;;;;;;;6.45;1.83;;;;;;;5.60;91.94;102084.75;4962517;28;20523;-84
2022/04/10 07:26:36;;;;;;;8.15;1.85;;;;;;;5.68;92.15;102093.50;4943812;28;20027;-85
2022/04/10 07:29:01;;;;;;;10.02;2.10;;;;;;;5.78;91.83;102097.84;4943610;28;20062;-84
2022/04/10 07:31:27;;;;;;;10.60;1.92;;;;;;;5.81;90.41;102096.94;4959492;28;20098;-85
2022/04/10 07:33:52;;;;;;;7.93;2.13;;;;;;;5.86;90.58;102098.66;4957590;28;20035;-85
2022/04/10 07:36:17;;;;;;;12.20;2.00;;;;;;;5.97;90.07;102105.63;4958627;28;20035;-83
2022/04/10 07:38:43;;;;;;;9.93;2.03;;;;;;;6.03;88.80;102108.25;4924568;29;20399;-85
2022/04/10 07:41:08;;;;;;;6.88;1.88;;;;;;;6.15;89.06;102110.81;4975812;28;20074;-84
2022/04/10 07:43:34;;;;;;;6.97;1.73;;;;;;;6.30;89.03;102122.97;4959060;28;20130;-85
2022/04/10 07:48:43;;;;;;;7.03;1.40;;;;;;;6.62;86.67;102121.03;4945687;28;20050;-84
2022/04/10 07:51:08;;;;;;;8.45;1.85;;;;;;;6.75;85.68;102129.69;4939886;29;20027;-85
2022/04/10 07:53:34;;;;;;;9.73;1.90;;;;;;;6.84;84.64;102129.59;4942841;28;20394;-84
2022/04/10 07:56:00;;;;;;;5.85;1.50;;;;;;;6.96;83.54;102133.91;4927641;28;20035;-92
2022/04/10 07:58:25;;;;;;;6.28;1.70;;;;;;;7.16;83.24;102124.06;4960063;28;20035;-89
2022/04/10 08:00:51;;;;;;;7.97;2.20;;;;;;;7.37;83.49;102136.13;4924624;29;20051;-91
2022/04/10 08:03:17;;;;;;;8.13;2.17;;;;;;;7.55;80.83;102121.88;4956073;29;20054;-90
2022/04/10 08:05:42;;;;;;;8.35;1.50;;;;;;;7.69;75.65;102121.72;4955548;28;20106;-92
2022/04/10 08:08:10;;;;;;;3.85;1.45;;;;;;;7.96;73.68;102132.81;4956161;28;20027;-91
2022/04/10 08:10:37;;;;;;;7.32;1.80;;;;;;;8.17;71.51;102133.41;4945753;29;20043;-89
2022/04/10 08:13:02;;;;;;;8.57;2.22;;;;;;;8.14;69.70;102136.09;4921136;29;20083;-90
2022/04/10 08:15:28;;;;;;;6.97;2.50;;;;;;;8.08;67.15;102139.69;4919171;29;20073;-89
2022/04/10 08:17:55;;;;;;;4.20;1.55;;;;;;;8.02;66.72;102137.13;4957066;29;20114;-90
2022/04/10 08:20:21;;;;;;;5.93;1.67;;;;;;;7.99;65.50;102147.72;4952520;29;20034;-90
2022/04/10 08:22:53;;;;;;;5.05;1.58;;;;;;;8.07;65.42;102147.63;4935257;29;20027;-91
2022/04/10 08:25:18;;;;;;;5.93;1.60;;;;;;;8.00;67.70;102152.09;4953941;28;20035;-89
2022/04/10 08:27:44;;;;;;;2.78;1.50;;;;;;;7.97;69.44;102149.53;4955566;29;20130;-92
2022/04/10 08:30:10;;;;;;;8.63;1.90;;;;;;;7.97;70.44;102155.66;4971853;28;20513;-92
2022/04/10 08:32:40;;;;;;;6.75;1.55;;;;;;;7.94;71.67;102165.38;4955459;29;20043;-91
2022/04/10 08:35:07;;;;;;;8.88;1.58;;;;;;;8.15;67.76;102153.69;4955553;29;20557;-90
2022/04/10 08:37:33;;;;;;;5.93;1.45;;;;;;;8.32;64.84;102159.56;4955919;29;20035;-90
2022/04/10 08:39:58;;;;;;;8.07;1.35;;;;;;;8.40;62.10;102156.84;4955974;29;20566;-91
2022/04/10 08:42:23;;;;;;;4.20;1.25;;;;;;;8.51;62.45;102162.84;4953959;29;20353;-89
2022/04/10 08:44:49;;;;;;;9.07;1.50;;;;;;;8.61;61.65;102155.66;4971943;28;20031;-91
2022/04/10 08:47:20;;;;;;;7.20;1.80;;;;;;;8.65;61.55;102161.78;4923808;29;20023;-88
2022/04/10 08:49:47;;;;;;;6.97;2.78;;;;;;;8.70;61.23;102159.94;4956096;28;20022;-89
2022/04/10 08:52:15;;;;;;;10.15;2.75;;;;;;;8.75;59.84;102157.25;4961230;29;20031;-89
2022/04/10 08:54:41;;;;;;;9.30;1.65;;;;;;;8.64;59.53;102158.25;4970466;29;20060;-90
2022/04/10 08:57:07;;;;;;;7.05;1.58;;;;;;;8.59;58.78;102161.88;4988721;28;20043;-88
2022/04/10 08:59:32;;;;;;;3.67;1.45;;;;;;;8.55;60.14;102160.19;4961089;28;20057;-88
2022/04/10 09:01:58;;;;;;;4.35;1.50;;;;;;;8.75;60.89;102155.47;4938131;29;20034;-90
2022/04/10 09:04:24;;;;;;;7.93;2.50;;;;;;;8.93;59.15;102153.41;4955999;29;20097;-87
2022/04/10 09:07:03;;;;;;;5.15;1.80;;;;;;;9.09;57.73;102156.66;4954230;29;20176;-89
2022/04/10 09:09:31;;;;;;;6.68;1.55;;;;;;;9.51;59.36;102152.38;4955937;29;20043;-89
2022/04/10 09:11:58;;;;;;;4.13;1.70;;;;;;;9.72;57.02;102154.59;4971315;28;20027;-89
2022/04/10 09:14:42;;;;;;;6.90;1.58;;;;;;;9.55;55.99;102158.44;4954635;29;20178;-89
2022/04/10 09:17:17;;;;;;;5.68;1.70;;;;;;;9.59;56.51;102151.31;4956197;29;20143;-91
2022/04/10 09:19:50;;;;;;;5.55;1.80;;;;;;;9.98;56.31;102154.94;4955677;28;20043;-87
2022/04/10 09:22:37;;;;;;;6.70;1.55;;;;;;;10.37;54.41;102153.25;4956075;29;20034;-89
2022/04/10 09:25:09;;;;;;;5.50;1.90;;;;;;;11.44;48.76;102154.97;4956479;28;20035;-91
2022/04/10 09:27:38;;;;;;;3.40;1.50;;;;;;;13.16;44.90;102156.84;4956297;28;20015;-91
2022/04/10 09:30:06;;;;;;;4.15;1.65;;;;;;;13.91;40.07;102166.59;4952849;29;20037;-91
2022/04/10 09:32:40;;;;;;;6.43;1.52;;;;;;;13.62;40.14;102163.25;4952894;29;20038;-91
2022/04/10 09:35:07;;;;;;;4.72;1.50;;;;;;;12.51;41.93;102169.63;4954119;29;20118;-90
2022/04/10 09:37:46;;;;;;;4.15;1.30;;;;;;;11.20;44.97;102166.25;4954295;29;20511;-91
2022/04/10 09:40:31;;;;;;;5.57;2.08;;;;;;;12.11;46.42;102169.94;4954525;29;20041;-90
2022/04/10 09:43:04;;;;;;;9.13;2.35;;;;;;;14.01;39.41;102170.66;4954390;29;20025;-90
2022/04/10 09:45:38;;;;;;;6.53;2.85;;;;;;;14.87;38.77;102158.41;4970908;28;20035;-90
2022/04/10 09:48:19;;;;;;;6.30;1.98;;;;;;;15.59;36.15;102156.19;4938365;29;20027;-91
2022/04/10 09:50:45;;;;;;;4.28;1.73;;;;;;;16.37;35.09;102161.53;4951829;29;20032;-91
2022/04/10 09:53:11;;;;;;;6.45;2.25;;;;;;;15.92;35.10;102176.13;4968759;28;20035;-90
2022/04/10 09:55:43;;;;;;;6.07;1.77;;;;;;;15.55;36.90;102173.31;4932357;29;20102;-90
2022/04/10 09:58:14;;;;;;;4.22;1.85;;;;;;;16.50;35.90;102167.16;4962075;28;20028;-91
2022/04/10 10:00:43;;;;;;;3.47;1.70;;;;;;;18.00;30.92;102164.84;4960519;28;20045;-90
2022/04/10 10:03:10;;;;;;;4.13;1.83;;;;;;;17.72;30.82;102168.13;4967678;28;20037;-90
2022/04/10 10:05:36;;;;;;;7.38;2.33;;;;;;;17.33;31.36;102164.81;4958838;28;20126;-89
2022/04/10 10:08:03;;;;;;;7.75;2.20;;;;;;;17.42;33.07;102177.72;4956529;28;20027;-93
2022/04/10 10:10:31;;;;;;;5.60;2.10;;;;;;;17.93;30.91;102168.75;4941425;28;20030;-93
2022/04/10 10:13:00;;;;;;;11.57;3.58;;;;;;;18.25;31.06;102172.38;4971669;28;20549;-92
2022/04/10 10:15:27;;;;;;;5.75;2.70;;;;;;;16.78;31.90;102168.47;4958556;28;20030;-93
2022/04/10 10:17:53;;;;;;;8.40;2.38;;;;;;;17.08;32.75;102170.56;4969614;28;20034;-93
2022/04/10 10:20:20;;;;;;;6.65;1.90;;;;;;;16.75;32.28;102176.63;4960630;28;20030;-92
2022/04/10 10:22:45;;;;;;;5.65;2.20;;;;;;;17.08;33.55;102170.56;4958619;28;20074;-92
2022/04/10 10:25:24;;;;;;;15.45;2.40;;;;;;;18.82;29.34;102163.78;4943351;28;20035;-91
2022/04/10 10:28:11;;;;;;;8.70;2.40;;;;;;;19.51;26.71;102165.09;4958266;28;20263;-90
2022/04/10 10:31:01;;;;;;;18.35;2.05;;;;;;;18.51;30.29;102165.53;4971884;28;20094;-91
2022/04/10 10:33:30;;;;;;;8.27;2.15;;;;;;;18.80;28.67;102168.34;4982770;28;20102;-89
2022/04/10 10:35:57;;;;;;;6.20;2.00;;;;;;;18.42;29.96;102171.41;4978576;28;20035;-91
2022/04/10 10:38:25;;;;;;;8.43;2.22;;;;;;;19.20;28.58;102177.72;4979431;28;20039;-90
2022/04/10 10:40:52;;;;;;;7.35;1.70;;;;;;;19.27;26.09;102166.50;4981778;28;20039;-92
2022/04/10 10:43:22;;;;;;;12.82;2.10;;;;;;;19.46;28.94;102176.13;4997751;28;20035;-91
2022/04/10 10:45:54;;;;;;;19.00;2.88;;;;;;;20.14;27.53;102174.59;4996705;28;20022;-91
2022/04/10 10:48:32;;;;;;;6.35;1.70;;;;;;;19.64;24.35;102176.78;4978110;28;20019;-91
2022/04/10 10:51:22;;;;;;;11.40;1.80;;;;;;;18.98;28.68;102174.47;4995349;28;20026;-91
2022/04/10 10:53:57;;;;;;;7.28;1.83;;;;;;;19.47;27.83;102172.47;4933397;28;20050;-90
2022/04/10 10:56:52;;;;;;;7.22;1.80;;;;;;;20.08;24.99;102175.84;4984668;28;20026;-92
2022/04/10 10:59:26;;;;;;;4.43;1.88;;;;;;;19.23;26.17;102174.84;4947782;28;20027;-91
2022/04/10 11:02:01;;;;;;;5.70;1.42;;;;;;;19.16;25.29;102174.34;4981097;28;20022;-92
2022/04/10 11:04:30;;;;;;;8.77;1.73;;;;;;;19.41;27.28;102170.16;5011464;28;20023;-91
2022/04/10 11:07:18;;;;;;;7.18;1.63;;;;;;;19.85;23.67;102160.31;4967646;28;20033;-92
2022/04/10 11:09:51;;;;;;;4.60;1.30;;;;;;;19.57;25.18;102159.34;4981809;28;20046;-92
2022/04/10 11:12:22;;;;;;;9.20;1.83;;;;;;;19.85;25.49;102144.19;4966211;28;20022;-90
2022/04/10 11:14:51;;;;;;;5.03;1.60;;;;;;;20.16;23.76;102144.94;4997868;28;20027;-91
2022/04/10 11:17:17;;;;;;;4.50;1.70;;;;;;;19.76;23.86;102149.16;4968368;28;20090;-91
2022/04/10 11:19:48;;;;;;;7.22;1.80;;;;;;;18.81;26.01;102140.56;5000845;28;20026;-91
2022/04/10 11:22:20;;;;;;;7.80;1.58;;;;;;;19.13;27.01;102135.13;5001630;28;20051;-92
2022/04/10 11:24:50;;;;;;;8.27;1.80;;;;;;;18.42;28.80;102141.06;4984835;28;20022;-91
2022/04/10 11:27:39;;;;;;;7.57;1.70;;;;;;;19.18;27.88;102139.34;4985890;28;20011;-91
2022/04/10 11:30:06;;;;;;;6.20;1.77;;;;;;;18.78;26.46;102135.38;4993484;28;20027;-92
2022/04/10 11:32:45;;;;;;;7.30;1.85;;;;;;;17.40;27.52;102131.41;4968047;28;20019;-92